Time;durP1;ratioP1;P1;durP2;ratioP2;P2;SDS_P1;SDS_P2;PMS_P1;PMS_P2;Temp;Humidity;BMP_temperature;BMP_pressure;BME280_temperature;BME280_humidity;BME280_pressure;Samples;Min_cycle;Max_cycle;Signal;HPM_P1;HPM_P2
2021/10/21 00:01:24;;;;;;;32.65;18.02;;;13.10;99.90;;;;;;6202528;23;20163;-88
2021/10/21 00:04:15;;;;;;;29.20;18.08;;;13.10;99.90;;;;;;6242598;23;20451;-89
2021/10/21 00:07:04;;;;;;;29.73;18.65;;;13.00;99.90;;;;;;6221199;23;20424;-88
2021/10/21 00:10:07;;;;;;;28.70;18.60;;;12.90;99.90;;;;;;6242410;23;20087;-90
2021/10/21 00:12:57;;;;;;;34.03;18.80;;;12.80;99.90;;;;;;6221906;23;20028;-89
2021/10/21 00:15:47;;;;;;;37.33;21.42;;;12.80;99.90;;;;;;6223671;23;20088;-88
2021/10/21 00:18:36;;;;;;;27.95;19.52;;;12.80;99.90;;;;;;6201862;23;20031;-88
2021/10/21 00:21:26;;;;;;;27.73;18.40;;;12.80;99.90;;;;;;6241443;23;20020;-90
2021/10/21 00:24:16;;;;;;;24.95;17.23;;;12.90;99.90;;;;;;6222071;23;20032;-90
2021/10/21 00:27:09;;;;;;;21.15;15.23;;;13.00;99.90;;;;;;6222883;23;20034;-91
2021/10/21 00:30:08;;;;;;;22.10;14.77;;;13.00;99.90;;;;;;6188317;23;20493;-88
2021/10/21 00:33:04;;;;;;;23.98;14.32;;;13.10;99.90;;;;;;6223462;23;20024;-90
2021/10/21 00:35:56;;;;;;;17.77;13.20;;;13.10;99.90;;;;;;6244523;23;20038;-89
2021/10/21 00:38:46;;;;;;;16.42;12.55;;;13.20;99.90;;;;;;6182342;23;20035;-86
2021/10/21 00:41:33;;;;;;;14.88;11.15;;;13.30;99.90;;;;;;6202625;23;20028;-87
2021/10/21 00:44:23;;;;;;;15.60;11.55;;;13.40;99.90;;;;;;6181884;23;20032;-88
2021/10/21 00:47:12;;;;;;;14.75;12.02;;;13.40;99.90;;;;;;6222272;23;20028;-88
2021/10/21 00:50:02;;;;;;;15.40;11.50;;;13.40;99.90;;;;;;6181853;23;20123;-87
2021/10/21 00:52:52;;;;;;;14.80;12.32;;;13.50;99.90;;;;;;6243985;23;20387;-87
2021/10/21 00:55:40;;;;;;;23.05;12.40;;;13.50;99.90;;;;;;6248381;23;20004;-87
2021/10/21 00:58:28;;;;;;;16.50;12.10;;;13.50;99.90;;;;;;6201213;23;20090;-89
2021/10/21 01:01:17;;;;;;;14.88;11.85;;;13.50;99.90;;;;;;6244238;23;20319;-86
2021/10/21 01:04:07;;;;;;;15.18;11.27;;;13.40;99.90;;;;;;6247216;23;20048;-88
2021/10/21 01:07:04;;;;;;;14.68;11.60;;;13.50;99.90;;;;;;6205139;23;20035;-90
2021/10/21 01:09:57;;;;;;;13.52;11.30;;;13.50;99.90;;;;;;6226233;23;20110;-89
2021/10/21 01:12:45;;;;;;;17.33;11.88;;;13.50;99.90;;;;;;6243858;23;20407;-87
2021/10/21 01:15:43;;;;;;;17.30;12.77;;;13.50;99.90;;;;;;6245863;23;20028;-88
2021/10/21 01:18:38;;;;;;;11.48;9.95;;;13.50;99.90;;;;;;6245504;23;20051;-87
2021/10/21 01:21:28;;;;;;;12.05;10.25;;;13.50;99.90;;;;;;6245090;23;20139;-89
2021/10/21 01:24:24;;;;;;;11.43;9.77;;;13.60;99.90;;;;;;6244767;23;20331;-88
2021/10/21 01:27:17;;;;;;;11.85;8.90;;;13.50;99.90;;;;;;6223448;23;20107;-88
2021/10/21 01:30:07;;;;;;;14.35;10.00;;;13.50;99.90;;;;;;6224547;23;20028;-87
2021/10/21 01:32:57;;;;;;;10.73;9.13;;;13.50;99.90;;;;;;6247143;23;20024;-87
2021/10/21 01:35:47;;;;;;;11.40;8.82;;;13.50;99.90;;;;;;6203240;23;20107;-86
2021/10/21 01:38:37;;;;;;;13.43;9.23;;;13.50;99.90;;;;;;6203783;23;20099;-87
2021/10/21 01:41:36;;;;;;;12.68;8.55;;;13.50;99.90;;;;;;6184575;23;20442;-88
2021/10/21 01:44:24;;;;;;;12.27;8.18;;;13.50;99.90;;;;;;6205490;23;20039;-87
2021/10/21 01:47:17;;;;;;;10.02;8.00;;;13.40;99.90;;;;;;6244872;23;20082;-88
2021/10/21 01:50:05;;;;;;;10.82;8.05;;;13.40;99.90;;;;;;6202662;23;20024;-89
2021/10/21 01:52:55;;;;;;;10.30;7.88;;;13.40;99.90;;;;;;6222988;23;20028;-87
2021/10/21 01:55:46;;;;;;;10.52;7.40;;;13.40;99.90;;;;;;6247163;23;20024;-89
2021/10/21 01:58:36;;;;;;;9.77;7.72;;;13.40;99.90;;;;;;6223531;23;20024;-89
2021/10/21 02:01:26;;;;;;;11.63;7.03;;;13.40;99.90;;;;;;6223959;23;20024;-88
2021/10/21 02:04:13;;;;;;;10.10;6.90;;;13.40;99.90;;;;;;6184784;23;20028;-88
2021/10/21 02:07:04;;;;;;;8.07;6.07;;;13.40;99.90;;;;;;6203396;23;20086;-86
2021/10/21 02:09:51;;;;;;;11.70;6.20;;;13.50;99.90;;;;;;6184253;23;20047;-89
2021/10/21 02:12:38;;;;;;;7.00;5.53;;;13.50;99.90;;;;;;6247267;23;20086;-87
2021/10/21 02:15:26;;;;;;;8.02;5.55;;;13.50;99.90;;;;;;6204757;23;20174;-89
2021/10/21 02:18:13;;;;;;;7.97;5.88;;;13.50;99.90;;;;;;6183674;23;20075;-89
2021/10/21 02:21:07;;;;;;;9.20;6.13;;;13.40;99.90;;;;;;6224051;23;20126;-88
2021/10/21 02:23:58;;;;;;;6.60;5.72;;;13.50;99.90;;;;;;6210886;23;20028;-87
2021/10/21 02:26:45;;;;;;;9.32;6.13;;;13.50;99.90;;;;;;6206824;23;20442;-84
2021/10/21 02:29:35;;;;;;;7.00;6.18;;;13.60;99.90;;;;;;6248136;23;20028;-86
2021/10/21 02:32:25;;;;;;;7.75;6.30;;;13.60;99.90;;;;;;6227707;23;20024;-85
2021/10/21 02:35:12;;;;;;;9.00;6.85;;;13.60;99.90;;;;;;6250008;23;20024;-86
2021/10/21 02:38:01;;;;;;;9.00;6.60;;;13.70;99.90;;;;;;6247157;23;20317;-86
2021/10/21 02:40:49;;;;;;;9.00;6.82;;;13.70;99.90;;;;;;6247219;23;20028;-87
2021/10/21 02:43:37;;;;;;;8.88;6.78;;;13.60;99.90;;;;;;6223135;23;20078;-87
2021/10/21 02:46:34;;;;;;;9.50;7.70;;;13.70;99.90;;;;;;6244167;23;20024;-88
2021/10/21 02:49:24;;;;;;;10.52;8.00;;;13.70;99.90;;;;;;6204960;23;20130;-86
2021/10/21 02:52:16;;;;;;;10.73;8.15;;;13.60;99.90;;;;;;6241795;23;20415;-87
2021/10/21 02:55:06;;;;;;;9.20;7.53;;;13.60;99.90;;;;;;6245750;23;20507;-86
2021/10/21 02:57:57;;;;;;;9.02;6.18;;;13.60;99.90;;;;;;6243403;23;20020;-86
2021/10/21 03:00:48;;;;;;;7.40;6.55;;;13.80;99.90;;;;;;6200914;23;20066;-87
2021/10/21 03:03:39;;;;;;;7.35;4.68;;;13.80;99.90;;;;;;6202954;23;20020;-86
2021/10/21 03:06:29;;;;;;;5.95;5.13;;;13.80;99.90;;;;;;6243227;23;20028;-87
2021/10/21 03:09:16;;;;;;;5.50;4.55;;;13.90;99.90;;;;;;6201297;23;20028;-88
2021/10/21 03:12:04;;;;;;;7.25;4.45;;;13.90;99.90;;;;;;6201883;23;20121;-88
2021/10/21 03:14:52;;;;;;;4.43;3.05;;;13.90;99.90;;;;;;6243801;23;20027;-86
2021/10/21 03:17:42;;;;;;;4.60;3.45;;;14.00;99.90;;;;;;6223268;23;20035;-87
2021/10/21 03:20:29;;;;;;;6.32;3.35;;;14.00;99.90;;;;;;6222757;23;20399;-90
2021/10/21 03:23:19;;;;;;;4.32;2.75;;;14.00;99.90;;;;;;6244810;23;20020;-87
2021/10/21 03:26:14;;;;;;;5.60;2.22;;;13.80;99.90;;;;;;6244977;23;20074;-89
2021/10/21 03:29:04;;;;;;;4.38;2.45;;;13.70;99.90;;;;;;6242590;23;20085;-89
2021/10/21 03:31:55;;;;;;;4.50;1.73;;;13.70;99.90;;;;;;6223001;23;20031;-86
2021/10/21 03:34:45;;;;;;;2.08;1.77;;;13.70;99.90;;;;;;6198998;23;20024;-88
2021/10/21 03:37:34;;;;;;;1.73;1.38;;;13.60;99.90;;;;;;6243142;23;20123;-88
2021/10/21 03:40:24;;;;;;;2.40;1.50;;;13.70;99.90;;;;;;6223030;23;20028;-86
2021/10/21 03:43:15;;;;;;;1.52;1.40;;;13.60;99.90;;;;;;6243570;23;20028;-87
2021/10/21 03:46:03;;;;;;;2.17;1.50;;;13.50;99.90;;;;;;6243333;23;20027;-87
2021/10/21 03:48:52;;;;;;;1.55;1.40;;;13.60;99.90;;;;;;6243214;23;20024;-87
2021/10/21 03:51:40;;;;;;;2.95;1.30;;;13.60;99.90;;;;;;6221538;23;20094;-87
2021/10/21 03:54:32;;;;;;;2.70;1.20;;;13.70;99.90;;;;;;6244207;23;20054;-87
2021/10/21 03:57:19;;;;;;;4.10;1.30;;;13.70;99.90;;;;;;6244374;23;20039;-90
2021/10/21 04:00:11;;;;;;;4.78;1.60;;;13.70;99.90;;;;;;6220557;23;20202;-86
2021/10/21 04:04:05;;;;;;;3.08;1.45;;;13.60;99.90;;;;;;6221170;23;20291;-87
2021/10/21 04:06:52;;;;;;;1.67;1.20;;;13.60;99.90;;;;;;6050114;23;20034;-86
2021/10/21 04:09:48;;;;;;;2.97;1.10;;;13.60;99.90;;;;;;6075533;23;20050;-88
2021/10/21 04:12:35;;;;;;;3.63;1.20;;;13.60;99.90;;;;;;6215482;23;20082;-86
2021/10/21 04:15:28;;;;;;;3.97;1.13;;;13.60;99.90;;;;;;6221221;23;20035;-87
2021/10/21 04:18:19;;;;;;;1.60;0.90;;;13.50;99.90;;;;;;6221987;23;20024;-87
2021/10/21 04:21:10;;;;;;;4.75;1.15;;;13.50;99.90;;;;;;6220084;23;20026;-83
2021/10/21 04:23:57;;;;;;;1.42;1.15;;;13.40;99.90;;;;;;6243207;23;20027;-83
2021/10/21 04:26:49;;;;;;;3.45;1.00;;;13.30;99.90;;;;;;6243757;23;20059;-84
2021/10/21 04:29:39;;;;;;;1.80;0.82;;;13.30;99.90;;;;;;6203556;23;20094;-84
2021/10/21 04:32:26;;;;;;;2.65;0.90;;;13.20;99.90;;;;;;6221118;23;20077;-85
2021/10/21 04:35:14;;;;;;;3.53;1.00;;;13.10;99.90;;;;;;6244861;23;20085;-84
2021/10/21 04:38:02;;;;;;;3.97;1.00;;;13.10;99.90;;;;;;6224913;23;20090;-84
2021/10/21 04:40:49;;;;;;;3.85;1.20;;;13.10;99.90;;;;;;6255106;23;20046;-85
2021/10/21 04:43:37;;;;;;;3.58;1.08;;;13.20;99.90;;;;;;6248807;23;20020;-84
2021/10/21 04:46:24;;;;;;;6.40;1.08;;;13.10;99.90;;;;;;6221980;23;20077;-81
2021/10/21 04:49:14;;;;;;;3.22;0.77;;;13.00;99.90;;;;;;6243635;23;20520;-82
2021/10/21 04:52:01;;;;;;;3.88;1.20;;;12.80;99.90;;;;;;6222027;23;20205;-84
2021/10/21 04:54:50;;;;;;;3.53;1.48;;;12.80;99.90;;;;;;6222154;23;20199;-83
2021/10/21 04:57:38;;;;;;;3.45;1.00;;;12.70;99.90;;;;;;6222328;23;20027;-83
2021/10/21 05:00:28;;;;;;;8.80;1.17;;;12.60;99.90;;;;;;6242849;23;20028;-86
2021/10/21 05:03:15;;;;;;;4.00;1.48;;;12.50;99.90;;;;;;6245805;23;20099;-87
2021/10/21 05:06:05;;;;;;;4.68;1.50;;;12.40;99.90;;;;;;6245794;23;20364;-85
2021/10/21 05:08:53;;;;;;;8.52;1.25;;;12.40;99.90;;;;;;6203914;23;20023;-88
2021/10/21 05:11:41;;;;;;;3.83;1.20;;;12.30;99.90;;;;;;6183607;23;20024;-90
2021/10/21 05:14:28;;;;;;;2.92;1.02;;;12.40;99.90;;;;;;6224508;23;20030;-86
2021/10/21 05:17:16;;;;;;;2.63;1.25;;;12.40;99.90;;;;;;6244306;23;20047;-87
2021/10/21 05:20:04;;;;;;;2.92;1.13;;;12.50;99.90;;;;;;6224437;23;20371;-89
2021/10/21 05:22:51;;;;;;;3.00;0.93;;;12.40;99.90;;;;;;6224205;23;20094;-88
2021/10/21 05:25:41;;;;;;;2.88;0.90;;;12.20;99.90;;;;;;6244156;23;20024;-88
2021/10/21 05:28:31;;;;;;;4.68;1.15;;;12.10;99.90;;;;;;6225596;23;20024;-89
2021/10/21 05:31:23;;;;;;;5.95;1.30;;;12.10;99.90;;;;;;6248723;23;20071;-86
2021/10/21 05:34:16;;;;;;;4.97;1.60;;;12.20;99.90;;;;;;6233682;23;20339;-86
2021/10/21 05:37:08;;;;;;;7.13;1.50;;;12.20;99.90;;;;;;6238325;23;20035;-90
2021/10/21 05:39:55;;;;;;;12.07;1.95;;;12.20;99.90;;;;;;6232592;23;20050;-88
2021/10/21 05:42:42;;;;;;;10.27;1.45;;;12.20;99.90;;;;;;6251346;23;20028;-91
2021/10/21 05:45:29;;;;;;;6.53;1.83;;;12.20;99.90;;;;;;6249234;23;20036;-89
2021/10/21 05:48:19;;;;;;;15.70;1.83;;;12.10;99.90;;;;;;6250118;23;20028;-91
2021/10/21 05:51:16;;;;;;;11.70;2.05;;;12.10;99.90;;;;;;6230647;23;20509;-88
2021/10/21 05:54:05;;;;;;;9.60;1.70;;;12.00;99.90;;;;;;6248355;23;20083;-90
2021/10/21 05:56:56;;;;;;;10.55;1.75;;;11.90;99.90;;;;;;6249500;23;20024;-89
2021/10/21 05:59:44;;;;;;;6.15;1.80;;;11.80;99.90;;;;;;6217728;22;20025;-90
2021/10/21 06:02:32;;;;;;;9.02;1.75;;;11.80;99.90;;;;;;6260980;23;20032;-92
2021/10/21 06:05:23;;;;;;;7.32;1.73;;;11.70;99.90;;;;;;6261635;23;20064;-89
2021/10/21 06:08:10;;;;;;;15.70;2.28;;;11.70;99.90;;;;;;6260569;23;20081;-89
2021/10/21 06:11:01;;;;;;;7.40;1.92;;;11.60;99.90;;;;;;6245548;22;20032;-89
2021/10/21 06:13:48;;;;;;;7.07;1.42;;;11.60;99.90;;;;;;6267007;22;20024;-88
2021/10/21 06:16:35;;;;;;;9.40;1.73;;;11.60;99.90;;;;;;6260805;23;20028;-88
2021/10/21 06:19:24;;;;;;;7.45;1.55;;;11.60;99.90;;;;;;6239124;23;20020;-89
2021/10/21 06:22:13;;;;;;;7.50;1.58;;;11.70;99.90;;;;;;6239307;23;20044;-84
2021/10/21 06:25:07;;;;;;;11.13;1.50;;;11.80;99.90;;;;;;6237296;23;20109;-92
2021/10/21 06:27:56;;;;;;;9.93;1.85;;;11.70;99.90;;;;;;6209907;23;20078;-89
2021/10/21 06:30:46;;;;;;;17.88;2.50;;;11.70;99.90;;;;;;6210907;23;20123;-88
2021/10/21 06:33:35;;;;;;;8.15;1.58;;;11.70;99.90;;;;;;6233181;23;20032;-85
2021/10/21 06:36:25;;;;;;;14.65;2.03;;;11.60;99.90;;;;;;6254496;23;20028;-91
2021/10/21 06:39:15;;;;;;;15.32;2.47;;;11.60;99.90;;;;;;6235621;23;20020;-89
2021/10/21 06:42:08;;;;;;;9.68;2.28;;;11.60;99.90;;;;;;6252639;23;20028;-89
2021/10/21 06:44:58;;;;;;;11.15;2.35;;;11.60;99.90;;;;;;6233970;23;20596;-87
2021/10/21 06:47:50;;;;;;;8.73;1.73;;;11.60;99.90;;;;;;6211181;23;20419;-88
2021/10/21 06:50:38;;;;;;;9.05;1.98;;;11.70;99.90;;;;;;6253913;23;20040;-88
2021/10/21 06:53:26;;;;;;;11.65;1.88;;;11.90;99.90;;;;;;6232013;23;20031;-85
2021/10/21 06:56:14;;;;;;;15.30;2.00;;;12.00;99.90;;;;;;6257501;23;20028;-91
2021/10/21 06:59:01;;;;;;;7.75;1.65;;;12.10;99.90;;;;;;6261418;23;20035;-87
2021/10/21 07:01:54;;;;;;;7.25;1.80;;;12.20;99.90;;;;;;6232689;23;20024;-88
2021/10/21 07:04:44;;;;;;;7.57;1.63;;;12.30;99.90;;;;;;6210849;23;20035;-86
2021/10/21 07:07:47;;;;;;;9.15;1.30;;;12.60;99.90;;;;;;6252207;23;20074;-89
2021/10/21 07:10:35;;;;;;;10.45;1.63;;;12.80;99.90;;;;;;6248546;23;20035;-87
2021/10/21 07:13:24;;;;;;;10.98;1.98;;;12.70;99.90;;;;;;6227905;23;20089;-89
2021/10/21 07:16:24;;;;;;;6.90;1.80;;;12.70;99.90;;;;;;6253628;23;20031;-90
2021/10/21 07:19:11;;;;;;;9.80;1.40;;;12.80;99.90;;;;;;6230153;23;20102;-88
2021/10/21 07:21:59;;;;;;;8.55;1.85;;;12.60;99.90;;;;;;6257828;23;20024;-90
2021/10/21 07:24:46;;;;;;;12.05;1.60;;;12.60;99.90;;;;;;6257823;23;20043;-90
2021/10/21 07:27:39;;;;;;;9.65;1.40;;;12.50;99.90;;;;;;6258568;23;20024;-90
2021/10/21 07:30:34;;;;;;;8.65;1.50;;;12.70;99.90;;;;;;6252233;23;20020;-92
2021/10/21 07:33:21;;;;;;;5.75;0.90;;;12.80;99.90;;;;;;6224886;23;20293;-92
2021/10/21 07:36:11;;;;;;;10.73;1.42;;;12.90;99.90;;;;;;6223946;23;20021;-91
2021/10/21 07:38:58;;;;;;;9.40;1.77;;;12.80;99.90;;;;;;6245493;23;20052;-92
2021/10/21 07:41:46;;;;;;;11.07;1.75;;;12.80;99.90;;;;;;6222195;23;20032;-89
2021/10/21 07:44:33;;;;;;;4.05;0.90;;;12.90;99.00;;;;;;6225518;23;20020;-88
2021/10/21 07:47:22;;;;;;;6.07;1.02;;;12.90;98.40;;;;;;6243499;23;20032;-89
2021/10/21 07:50:10;;;;;;;4.55;0.75;;;12.80;98.80;;;;;;6244087;23;20059;-89
2021/10/21 07:52:59;;;;;;;4.03;1.50;;;12.70;98.60;;;;;;6243337;23;20046;-86
2021/10/21 07:55:46;;;;;;;6.43;1.08;;;12.70;98.60;;;;;;6245049;23;20124;-90
2021/10/21 07:58:36;;;;;;;2.53;1.08;;;12.60;98.40;;;;;;6222250;23;20024;-88
2021/10/21 08:01:24;;;;;;;6.85;1.27;;;12.60;98.10;;;;;;6220243;23;20315;-89
2021/10/21 08:04:14;;;;;;;5.10;1.00;;;12.60;98.00;;;;;;6244291;23;20106;-87
2021/10/21 08:07:03;;;;;;;8.32;1.48;;;12.70;98.50;;;;;;6244969;23;20026;-90
2021/10/21 08:09:50;;;;;;;4.55;0.90;;;12.70;97.40;;;;;;6245577;23;20316;-90
2021/10/21 08:12:41;;;;;;;4.53;0.93;;;12.90;97.90;;;;;;6244249;23;20404;-88
2021/10/21 08:15:29;;;;;;;8.05;1.05;;;12.90;97.40;;;;;;6223005;23;20024;-92
2021/10/21 08:18:17;;;;;;;3.70;1.10;;;12.80;96.40;;;;;;6242334;23;20034;-87
2021/10/21 08:21:04;;;;;;;7.60;1.20;;;12.90;96.10;;;;;;6243452;23;20305;-90
2021/10/21 08:23:55;;;;;;;5.25;1.00;;;12.90;96.50;;;;;;6221741;23;20048;-91
2021/10/21 08:26:42;;;;;;;4.57;0.88;;;12.70;96.10;;;;;;6223318;23;20358;-91
2021/10/21 08:29:32;;;;;;;6.65;1.05;;;12.60;96.10;;;;;;6244164;23;20032;-92
2021/10/21 08:32:19;;;;;;;3.15;0.90;;;12.60;95.90;;;;;;6222828;23;20036;-90
2021/10/21 08:35:14;;;;;;;4.97;0.93;;;12.70;96.00;;;;;;6244894;23;20035;-89
2021/10/21 08:38:02;;;;;;;6.10;0.77;;;12.80;94.40;;;;;;6222818;23;20426;-89
2021/10/21 08:40:51;;;;;;;1.25;0.63;;;13.10;94.80;;;;;;6244438;23;20366;-89
2021/10/21 08:43:38;;;;;;;4.15;0.82;;;13.10;95.00;;;;;;6242830;23;20020;-89
2021/10/21 08:46:27;;;;;;;2.92;0.88;;;13.00;95.00;;;;;;6244011;23;20086;-88
2021/10/21 08:49:15;;;;;;;5.00;0.95;;;12.90;95.30;;;;;;6244615;23;20020;-91
2021/10/21 08:52:03;;;;;;;1.85;0.60;;;12.80;95.10;;;;;;6242418;23;20207;-90
2021/10/21 08:54:50;;;;;;;4.15;0.90;;;12.80;96.30;;;;;;6243090;23;20031;-87
2021/10/21 08:57:41;;;;;;;1.02;0.57;;;12.60;99.90;;;;;;6243547;23;20034;-90
2021/10/21 09:00:31;;;;;;;2.10;0.73;;;12.00;99.90;;;;;;6221332;23;20020;-91
2021/10/21 09:03:58;;;;;;;6.65;1.00;;;11.50;99.90;;;;;;6220770;23;20309;-89
2021/10/21 09:09:34;;;;;;;6.00;0.93;;;10.80;99.90;;;;;;6244234;23;20024;-88
2021/10/21 09:12:23;;;;;;;5.88;0.90;;;10.90;99.90;;;;;;6220949;23;20031;-88
2021/10/21 09:15:15;;;;;;;5.13;1.00;;;10.70;99.90;;;;;;6241967;23;20032;-89
2021/10/21 09:18:12;;;;;;;1.23;0.80;;;10.50;99.90;;;;;;6221863;23;20063;-90
2021/10/21 09:21:02;;;;;;;1.08;0.90;;;10.30;99.90;;;;;;6245662;23;20414;-91
2021/10/21 09:23:49;;;;;;;4.85;0.70;;;10.50;99.90;;;;;;6243243;23;20020;-89
2021/10/21 09:27:08;;;;;;;3.65;0.90;;;10.60;99.90;;;;;;6222684;23;20036;-88
2021/10/21 09:29:57;;;;;;;1.15;0.93;;;10.90;99.90;;;;;;6245395;23;20399;-89
2021/10/21 09:32:46;;;;;;;0.93;0.60;;;11.00;99.90;;;;;;6227506;23;20096;-87
2021/10/21 09:35:37;;;;;;;1.65;0.65;;;11.80;99.90;;;;;;6245905;23;20379;-86
2021/10/21 09:38:27;;;;;;;3.50;0.70;;;12.20;99.90;;;;;;6245085;23;20020;-88
2021/10/21 09:41:17;;;;;;;0.93;0.60;;;12.50;99.90;;;;;;6244345;23;20392;-90
2021/10/21 09:44:25;;;;;;;1.73;0.50;;;13.00;99.90;;;;;;6244805;23;20024;-87
2021/10/21 09:47:18;;;;;;;1.67;0.52;;;13.50;99.90;;;;;;6245786;23;20085;-88
2021/10/21 09:50:19;;;;;;;1.80;0.85;;;13.70;99.90;;;;;;6222938;23;20117;-89
2021/10/21 09:53:31;;;;;;;0.77;0.52;;;14.20;99.90;;;;;;6244265;23;20023;-89
2021/10/21 09:56:21;;;;;;;1.13;0.40;;;14.80;99.90;;;;;;6247494;23;20408;-88
2021/10/21 09:59:11;;;;;;;3.10;0.30;;;15.30;99.30;;;;;;6246497;22;20342;-91
2021/10/21 10:02:14;;;;;;;1.88;0.60;;;15.60;96.30;;;;;;6247961;23;20055;-88
2021/10/21 10:05:05;;;;;;;0.98;0.60;;;16.10;95.70;;;;;;6223494;23;20024;-88
2021/10/21 10:07:53;;;;;;;1.35;0.40;;;16.40;92.90;;;;;;6225975;23;20044;-88
2021/10/21 10:10:42;;;;;;;1.02;0.40;;;16.40;92.40;;;;;;6223449;23;20024;-90
2021/10/21 10:13:32;;;;;;;0.68;0.50;;;16.10;91.80;;;;;;6247022;23;20094;-90
2021/10/21 10:16:21;;;;;;;3.38;0.43;;;15.40;93.10;;;;;;6252978;23;20470;-89
2021/10/21 10:19:09;;;;;;;1.17;0.40;;;15.70;92.60;;;;;;6228179;23;20376;-89
2021/10/21 10:21:59;;;;;;;3.72;0.57;;;15.50;92.00;;;;;;6246324;23;20106;-90
2021/10/21 10:24:49;;;;;;;2.88;0.52;;;15.40;91.70;;;;;;6249810;23;20038;-90
2021/10/21 10:27:52;;;;;;;0.70;0.40;;;15.60;90.20;;;;;;6245417;23;20096;-88
2021/10/21 10:30:41;;;;;;;1.63;0.43;;;15.50;89.20;;;;;;6247424;23;20098;-89
2021/10/21 10:33:37;;;;;;;1.70;0.70;;;14.50;92.20;;;;;;6244433;23;20020;-90
2021/10/21 10:36:32;;;;;;;1.52;0.60;;;14.80;91.60;;;;;;6222804;23;20024;-90
2021/10/21 10:39:45;;;;;;;2.28;0.60;;;15.40;91.10;;;;;;6247694;23;20106;-93
2021/10/21 10:42:56;;;;;;;3.63;0.50;;;15.30;84.40;;;;;;6247138;23;20028;-87
2021/10/21 10:45:54;;;;;;;2.58;0.65;;;15.40;85.00;;;;;;6252620;23;20076;-88
2021/10/21 10:48:57;;;;;;;5.85;0.80;;;15.50;83.70;;;;;;6238133;23;20082;-88
2021/10/21 10:51:59;;;;;;;2.17;0.93;;;16.00;79.40;;;;;;6248640;23;20096;-88
2021/10/21 10:55:05;;;;;;;4.28;1.20;;;16.30;78.00;;;;;;6245141;23;20024;-87
2021/10/21 10:57:57;;;;;;;4.82;0.60;;;16.90;75.00;;;;;;6266041;22;20032;-85
2021/10/21 11:00:56;;;;;;;3.78;0.80;;;16.80;72.90;;;;;;6265867;22;20099;-89
2021/10/21 11:03:46;;;;;;;2.15;0.77;;;16.70;70.40;;;;;;6260328;23;20032;-87
2021/10/21 11:06:34;;;;;;;2.83;0.80;;;17.20;69.20;;;;;;6256211;23;20028;-89
2021/10/21 11:09:25;;;;;;;2.53;0.73;;;17.80;68.40;;;;;;6234341;23;20426;-86
2021/10/21 11:12:22;;;;;;;1.73;0.70;;;17.90;63.90;;;;;;6192898;23;20043;-89
2021/10/21 11:15:28;;;;;;;5.75;1.08;;;18.20;63.00;;;;;;6243790;23;20035;-90
2021/10/21 11:18:47;;;;;;;2.00;0.63;;;17.70;62.00;;;;;;6243748;23;20024;-89
2021/10/21 11:21:55;;;;;;;3.00;0.80;;;17.80;64.00;;;;;;6222055;23;20079;-88
2021/10/21 11:24:48;;;;;;;1.83;0.50;;;17.20;64.70;;;;;;6245022;23;20085;-87
2021/10/21 11:27:38;;;;;;;4.47;0.70;;;16.40;67.50;;;;;;6245900;23;20328;-88
2021/10/21 11:30:31;;;;;;;2.58;0.65;;;17.60;64.80;;;;;;6243370;23;20423;-90
2021/10/21 11:33:26;;;;;;;2.47;0.90;;;18.50;60.50;;;;;;6244476;23;20404;-90
2021/10/21 11:36:14;;;;;;;7.22;0.95;;;18.30;61.20;;;;;;6243627;23;20086;-89
2021/10/21 11:39:07;;;;;;;2.88;0.70;;;18.90;59.80;;;;;;6247402;23;20392;-90
2021/10/21 11:41:54;;;;;;;4.10;0.90;;;19.60;57.30;;;;;;6223125;23;20307;-87
2021/10/21 11:44:42;;;;;;;4.25;0.85;;;19.50;56.00;;;;;;6223002;23;20034;-89
2021/10/21 11:47:29;;;;;;;2.92;0.95;;;19.20;55.10;;;;;;6245102;23;20020;-90
2021/10/21 11:50:32;;;;;;;3.00;0.88;;;18.00;56.10;;;;;;6243504;23;20082;-90
2021/10/21 11:53:22;;;;;;;3.38;0.73;;;18.30;57.00;;;;;;6243734;23;20032;-90
2021/10/21 11:56:10;;;;;;;4.07;1.02;;;18.70;54.80;;;;;;6222014;23;20123;-88
2021/10/21 11:59:00;;;;;;;4.15;0.90;;;19.10;54.00;;;;;;6244332;23;20028;-89
2021/10/21 12:01:50;;;;;;;2.40;0.77;;;18.90;54.50;;;;;;6244944;23;20071;-90
2021/10/21 12:04:42;;;;;;;7.32;1.10;;;18.90;55.20;;;;;;6244540;23;20303;-91
2021/10/21 12:07:31;;;;;;;2.65;0.75;;;19.80;53.60;;;;;;6243246;23;20304;-90
2021/10/21 12:10:29;;;;;;;5.28;0.82;;;19.90;52.30;;;;;;6243206;23;20035;-90
2021/10/21 12:13:31;;;;;;;1.52;0.57;;;19.90;50.70;;;;;;6242908;23;20028;-89
2021/10/21 12:16:21;;;;;;;2.33;0.70;;;19.60;51.60;;;;;;6245465;23;20032;-87
2021/10/21 12:19:21;;;;;;;;;;;18.60;53.40;;;;;;6247022;23;20303;-89
2021/10/21 12:22:17;;;;;;;2.53;0.88;;;17.60;55.00;;;;;;6246281;23;19965;-89
2021/10/21 12:25:09;;;;;;;2.42;0.63;;;17.00;57.10;;;;;;6247346;23;20059;-90
2021/10/21 12:28:01;;;;;;;2.60;0.73;;;17.00;59.30;;;;;;6249083;23;20118;-90
2021/10/21 12:30:50;;;;;;;3.55;0.90;;;17.50;56.60;;;;;;6258881;22;20043;-88
2021/10/21 12:33:56;;;;;;;2.65;0.80;;;16.50;58.50;;;;;;6243976;23;20089;-88
2021/10/21 12:36:54;;;;;;;2.13;0.98;;;15.60;61.50;;;;;;6265502;23;20028;-86
2021/10/21 12:39:45;;;;;;;2.30;0.90;;;14.80;64.30;;;;;;6266856;23;20043;-88
2021/10/21 12:42:38;;;;;;;2.58;0.65;;;14.60;66.20;;;;;;6267170;22;20028;-87
2021/10/21 12:45:27;;;;;;;2.03;0.80;;;14.70;66.20;;;;;;6267666;23;20123;-87
2021/10/21 12:48:25;;;;;;;4.45;0.98;;;14.60;67.10;;;;;;6255423;23;20032;-90
2021/10/21 12:51:16;;;;;;;3.60;1.15;;;15.00;66.70;;;;;;6254392;23;20062;-90
2021/10/21 12:54:09;;;;;;;2.83;0.60;;;16.00;66.20;;;;;;6254693;23;20031;-89
2021/10/21 12:56:58;;;;;;;8.27;0.95;;;16.30;63.60;;;;;;6247440;23;20034;-90
2021/10/21 12:59:47;;;;;;;4.57;0.95;;;16.00;65.20;;;;;;6225822;23;20078;-89
2021/10/21 13:02:34;;;;;;;2.35;0.77;;;17.80;62.10;;;;;;6247362;23;20050;-91
2021/10/21 13:05:30;;;;;;;4.45;0.93;;;18.50;59.10;;;;;;6248702;23;20107;-91
2021/10/21 13:08:18;;;;;;;7.32;1.20;;;19.00;59.20;;;;;;6247628;23;20107;-87
2021/10/21 13:11:07;;;;;;;4.82;0.80;;;19.60;57.30;;;;;;6247410;23;20024;-88
2021/10/21 13:13:58;;;;;;;2.97;0.85;;;19.40;56.60;;;;;;6224970;23;20090;-87
2021/10/21 13:16:47;;;;;;;3.95;0.80;;;17.00;59.90;;;;;;6246716;23;20024;-88
2021/10/21 13:19:36;;;;;;;3.42;1.20;;;16.60;62.70;;;;;;6246237;23;20043;-89
2021/10/21 13:22:23;;;;;;;9.45;1.10;;;17.90;60.90;;;;;;6223345;23;20026;-89
2021/10/21 13:25:10;;;;;;;1.92;0.90;;;18.50;58.80;;;;;;6245100;23;20020;-92
2021/10/21 13:27:58;;;;;;;3.80;0.88;;;18.00;59.30;;;;;;6246011;23;20404;-90
2021/10/21 13:30:45;;;;;;;9.20;1.27;;;18.00;60.90;;;;;;6223257;23;20078;-91
2021/10/21 13:33:33;;;;;;;3.17;0.80;;;18.80;57.40;;;;;;6223667;23;20054;-90
2021/10/21 13:36:20;;;;;;;3.33;0.80;;;18.70;54.40;;;;;;6223435;23;20047;-88
2021/10/21 13:39:08;;;;;;;3.92;0.60;;;19.20;54.50;;;;;;6223814;23;20028;-89
2021/10/21 13:41:58;;;;;;;2.20;0.52;;;19.60;51.00;;;;;;6224298;23;20428;-89
2021/10/21 13:44:48;;;;;;;1.90;0.90;;;18.70;51.50;;;;;;6244832;23;20031;-88
2021/10/21 13:47:38;;;;;;;2.15;0.68;;;18.10;53.10;;;;;;6245294;23;20419;-88
2021/10/21 13:50:25;;;;;;;3.22;0.80;;;17.60;54.10;;;;;;6244645;23;20024;-88
2021/10/21 13:53:13;;;;;;;1.20;0.60;;;17.60;55.10;;;;;;6246775;23;20133;-86
2021/10/21 13:56:03;;;;;;;3.40;0.80;;;17.60;55.40;;;;;;6204567;23;20024;-88
2021/10/21 13:58:50;;;;;;;4.15;0.82;;;16.70;55.10;;;;;;6246126;23;20020;-89
2021/10/21 14:01:38;;;;;;;2.47;0.80;;;16.20;57.60;;;;;;6206398;23;20087;-91
2021/10/21 14:04:27;;;;;;;2.15;1.02;;;15.70;59.60;;;;;;6248646;23;20020;-91
2021/10/21 14:07:14;;;;;;;3.15;0.80;;;16.10;57.90;;;;;;6227016;23;20031;-90
2021/10/21 14:10:03;;;;;;;2.95;0.80;;;15.70;58.90;;;;;;6246705;23;20094;-86
2021/10/21 14:12:56;;;;;;;3.20;0.90;;;14.90;60.30;;;;;;6247069;23;20024;-86
2021/10/21 14:15:43;;;;;;;2.83;0.80;;;14.50;62.40;;;;;;6246462;23;20099;-86
2021/10/21 14:18:31;;;;;;;5.10;1.30;;;14.20;63.70;;;;;;6223600;23;20024;-88
2021/10/21 14:21:20;;;;;;;3.55;1.27;;;14.10;62.50;;;;;;6244652;23;20308;-87
2021/10/21 14:24:08;;;;;;;4.32;1.20;;;13.90;63.40;;;;;;6245204;23;20036;-88
2021/10/21 14:26:56;;;;;;;5.20;1.10;;;13.70;63.30;;;;;;6245622;23;20031;-92
2021/10/21 14:29:44;;;;;;;4.53;1.10;;;13.70;63.00;;;;;;6249439;23;20024;-91
2021/10/21 14:32:33;;;;;;;4.50;1.20;;;13.90;63.50;;;;;;6237020;23;20035;-85
2021/10/21 14:35:23;;;;;;;7.88;1.30;;;14.40;62.30;;;;;;6224359;23;20325;-87
2021/10/21 14:38:12;;;;;;;4.32;1.17;;;14.30;63.80;;;;;;6246135;23;20395;-87
2021/10/21 14:41:00;;;;;;;5.18;1.02;;;14.10;64.40;;;;;;6223897;23;20355;-86
2021/10/21 14:43:51;;;;;;;5.47;1.42;;;13.80;66.10;;;;;;6245623;23;20061;-88
2021/10/21 14:46:39;;;;;;;6.32;1.33;;;14.30;64.40;;;;;;6222760;23;20024;-89
2021/10/21 14:49:29;;;;;;;4.35;1.23;;;14.10;65.00;;;;;;6223340;23;20131;-90